createdAt,value
2022-07-25T00:00:19.591Z,92.30
2022-07-25T00:02:48.315Z,92.30
2022-07-25T00:05:17.416Z,92.30
2022-07-25T00:07:47.274Z,92.40
2022-07-25T00:10:15.768Z,92.50
2022-07-25T00:12:44.591Z,92.60
2022-07-25T00:15:14.368Z,93.00
2022-07-25T00:17:42.690Z,92.70
2022-07-25T00:20:11.788Z,92.90
2022-07-25T00:22:40.473Z,93.00
2022-07-25T00:25:11.364Z,93.00
2022-07-25T00:27:39.643Z,93.10
2022-07-25T00:30:09.928Z,92.90
2022-07-25T00:32:39.029Z,93.00
2022-07-25T00:35:08.136Z,93.00
2022-07-25T00:37:36.673Z,93.00
2022-07-25T00:40:05.655Z,93.10
2022-07-25T00:42:35.962Z,93.30
2022-07-25T00:45:05.242Z,93.20
2022-07-25T00:47:33.951Z,93.70
2022-07-25T00:50:02.273Z,93.50
2022-07-25T00:52:30.717Z,93.70
2022-07-25T00:54:59.749Z,93.90
2022-07-25T00:57:28.451Z,94.10
2022-07-25T00:59:58.431Z,94.40
2022-07-25T01:02:27.132Z,94.60
2022-07-25T01:04:57.043Z,94.70
2022-07-25T01:07:26.751Z,94.70
2022-07-25T01:09:55.701Z,94.90
2022-07-25T01:12:24.012Z,95.00
2022-07-25T01:14:52.400Z,95.20
2022-07-25T01:17:22.383Z,95.40
2022-07-25T01:19:51.392Z,95.50
2022-07-25T01:22:21.455Z,95.40
2022-07-25T01:24:49.735Z,95.60
2022-07-25T01:27:19.428Z,95.50
2022-07-25T01:29:47.710Z,95.60
2022-07-25T01:32:15.979Z,95.70
2022-07-25T01:34:44.253Z,95.90
2022-07-25T01:37:12.521Z,95.80
2022-07-25T01:39:42.147Z,95.80
2022-07-25T01:42:10.420Z,95.90
2022-07-25T01:44:39.540Z,96.00
2022-07-25T01:47:07.997Z,95.90
2022-07-25T01:49:36.354Z,96.10
2022-07-25T01:52:05.074Z,96.10
2022-07-25T01:54:33.771Z,96.10
2022-07-25T01:57:04.968Z,96.10
2022-07-25T01:59:38.098Z,96.20
2022-07-25T02:02:07.450Z,96.00
2022-07-25T02:04:37.070Z,96.10
2022-07-25T02:07:06.226Z,96.20
2022-07-25T02:09:36.095Z,96.10
2022-07-25T02:12:07.332Z,96.30
2022-07-25T02:14:35.760Z,96.30
2022-07-25T02:17:04.211Z,96.50
2022-07-25T02:19:32.876Z,96.40
2022-07-25T02:22:01.369Z,96.50
2022-07-25T02:24:29.844Z,96.60
2022-07-25T02:26:58.397Z,96.60
2022-07-25T02:29:28.174Z,96.80
2022-07-25T02:31:56.491Z,96.50
2022-07-25T02:34:24.948Z,96.60
2022-07-25T02:36:53.614Z,96.50
2022-07-25T02:39:22.402Z,96.70
2022-07-25T02:41:50.838Z,96.70
2022-07-25T02:44:19.531Z,97.00
2022-07-25T02:46:49.890Z,96.90
2022-07-25T02:49:18.235Z,96.60
2022-07-25T02:51:46.534Z,96.50
2022-07-25T02:54:15.074Z,96.30
2022-07-25T02:56:43.737Z,96.30
2022-07-25T02:59:12.044Z,96.10
2022-07-25T03:01:40.501Z,96.00
2022-07-25T03:04:11.210Z,95.80
2022-07-25T03:06:39.812Z,95.60
2022-07-25T03:09:08.412Z,95.60
2022-07-25T03:11:36.700Z,95.50
2022-07-25T03:14:05.499Z,95.50
2022-07-25T03:16:33.969Z,95.60
2022-07-25T03:19:02.475Z,95.70
2022-07-25T03:21:32.769Z,95.70
2022-07-25T03:24:01.035Z,95.90
2022-07-25T03:26:29.809Z,96.10
2022-07-25T03:28:58.371Z,96.30
2022-07-25T03:31:26.692Z,96.50
2022-07-25T03:33:55.059Z,96.80
2022-07-25T03:36:23.358Z,97.00
2022-07-25T03:38:52.967Z,97.20
2022-07-25T03:41:21.237Z,96.90
2022-07-25T03:43:49.715Z,97.00
2022-07-25T03:46:18.335Z,96.80
2022-07-25T03:48:46.908Z,96.70
2022-07-25T03:51:15.261Z,96.80
2022-07-25T03:54:01.125Z,96.80
2022-07-25T03:56:32.624Z,96.70
2022-07-25T03:59:00.970Z,96.90
2022-07-25T04:01:29.447Z,96.70
2022-07-25T04:03:58.180Z,96.80
2022-07-25T04:06:27.828Z,96.80
2022-07-25T04:08:58.152Z,96.80
2022-07-25T04:11:28.024Z,96.90
2022-07-25T04:13:59.097Z,96.70
2022-07-25T04:16:27.869Z,96.90
2022-07-25T04:18:57.309Z,96.60
2022-07-25T04:21:26.571Z,96.50
2022-07-25T04:23:54.917Z,96.60
2022-07-25T04:26:23.554Z,96.10
2022-07-25T04:28:51.914Z,95.80
2022-07-25T04:31:21.827Z,95.80
2022-07-25T04:33:54.067Z,96.10
2022-07-25T04:36:22.506Z,95.80
2022-07-25T04:38:51.509Z,95.60
2022-07-25T04:41:19.958Z,95.20
2022-07-25T04:43:49.101Z,95.00
2022-07-25T04:46:21.468Z,94.50
2022-07-25T04:48:50.820Z,94.30
2022-07-25T04:51:20.255Z,94.00
2022-07-25T04:53:48.602Z,92.80
2022-07-25T04:56:17.034Z,92.40
2022-07-25T04:58:45.734Z,91.30
2022-07-25T05:01:14.417Z,91.20
2022-07-25T05:03:50.028Z,89.90
2022-07-25T05:06:19.779Z,87.50
2022-07-25T05:08:48.339Z,85.90
2022-07-25T05:11:16.607Z,83.80
2022-07-25T05:13:44.972Z,82.80
2022-07-25T05:16:13.366Z,81.90
2022-07-25T05:18:42.055Z,80.40
2022-07-25T05:21:14.281Z,80.60
2022-07-25T05:23:42.664Z,78.40
2022-07-25T05:26:11.072Z,77.30
2022-07-25T05:28:39.611Z,77.00
2022-07-25T05:31:08.051Z,74.90
2022-07-25T05:33:36.684Z,75.00
2022-07-25T05:36:06.018Z,74.30
2022-07-25T05:38:35.929Z,72.50
2022-07-25T05:41:04.768Z,70.00
2022-07-25T05:43:33.205Z,68.40
2022-07-25T05:46:02.957Z,65.60
2022-07-25T05:48:32.245Z,63.70
2022-07-25T05:51:00.988Z,62.30
2022-07-25T05:53:29.853Z,61.00
2022-07-25T05:56:01.203Z,58.60
2022-07-25T05:58:30.183Z,57.20
2022-07-25T06:00:59.522Z,55.90
2022-07-25T06:03:27.986Z,55.10
2022-07-25T06:05:57.221Z,53.70
2022-07-25T06:08:28.572Z,52.60
2022-07-25T06:11:00.844Z,51.70
2022-07-25T06:13:31.003Z,52.00
2022-07-25T06:16:03.488Z,50.70
2022-07-25T06:18:32.012Z,50.10
2022-07-25T06:21:00.437Z,49.10
2022-07-25T06:23:29.575Z,48.40
2022-07-25T06:25:57.886Z,46.80
2022-07-25T06:28:28.008Z,47.10
2022-07-25T06:30:56.706Z,47.70
2022-07-25T06:33:24.990Z,46.40
2022-07-25T06:35:53.548Z,47.50
2022-07-25T06:38:21.844Z,48.40
2022-07-25T06:40:50.177Z,47.10
2022-07-25T06:43:19.010Z,46.80
2022-07-25T06:45:49.818Z,46.50
2022-07-25T06:48:18.945Z,46.90
2022-07-25T06:50:47.870Z,46.80
2022-07-25T06:53:16.159Z,46.30
2022-07-25T06:55:44.634Z,46.70
2022-07-25T06:58:13.023Z,48.00
2022-07-25T07:00:41.927Z,48.20
2022-07-25T07:03:12.344Z,48.80
2022-07-25T07:05:41.960Z,49.50
2022-07-25T07:08:10.747Z,50.30
2022-07-25T07:10:40.180Z,51.30
2022-07-25T07:13:13.343Z,51.00
2022-07-25T07:15:49.352Z,50.00
2022-07-25T07:18:20.119Z,50.00
2022-07-25T07:20:49.032Z,49.80
2022-07-25T07:23:18.026Z,49.90
2022-07-25T07:25:47.832Z,50.10
2022-07-25T07:28:17.274Z,49.90
2022-07-25T07:31:15.094Z,50.40
2022-07-25T07:33:35.612Z,51.00
2022-07-25T07:36:04.006Z,50.80
2022-07-25T07:38:32.325Z,50.80
2022-07-25T07:41:00.614Z,51.30
2022-07-25T07:43:31.670Z,51.20
2022-07-25T07:46:01.685Z,51.60
2022-07-25T07:48:31.425Z,51.10
2022-07-25T07:51:03.002Z,51.70
2022-07-25T07:53:45.946Z,51.60
2022-07-25T07:56:15.130Z,51.50
2022-07-25T07:58:44.214Z,52.20
2022-07-25T08:01:12.866Z,52.30
2022-07-25T08:03:41.147Z,52.30
2022-07-25T08:06:11.714Z,52.10
2022-07-25T08:08:40.161Z,52.20
2022-07-25T08:11:09.039Z,53.10
2022-07-25T08:13:38.185Z,53.50
2022-07-25T08:16:07.586Z,54.20
2022-07-25T08:18:35.987Z,54.00
2022-07-25T08:21:06.721Z,53.20
2022-07-25T08:23:38.929Z,54.30
2022-07-25T08:26:08.095Z,54.50
2022-07-25T08:28:36.404Z,54.00
2022-07-25T08:31:05.041Z,53.80
2022-07-25T08:33:33.592Z,54.00
2022-07-25T08:36:02.305Z,54.20
2022-07-25T08:38:31.122Z,55.10
2022-07-25T08:41:02.973Z,55.00
2022-07-25T08:43:33.606Z,55.20
2022-07-25T08:46:03.237Z,55.20
2022-07-25T08:48:32.145Z,54.40
2022-07-25T08:51:01.571Z,55.30
2022-07-25T08:53:33.251Z,56.70
2022-07-25T08:56:11.187Z,56.70
2022-07-25T08:58:43.938Z,57.70
2022-07-25T09:01:14.116Z,58.00
2022-07-25T09:03:44.018Z,57.50
2022-07-25T09:06:18.872Z,57.30
2022-07-25T09:08:56.887Z,57.80
2022-07-25T09:11:36.121Z,57.80
2022-07-25T09:14:08.427Z,56.90
2022-07-25T09:16:40.407Z,56.20
2022-07-25T09:19:17.198Z,56.10
2022-07-25T09:21:58.501Z,55.30
2022-07-25T09:24:29.033Z,56.00
2022-07-25T09:27:00.846Z,55.60
2022-07-25T09:29:33.921Z,55.90
2022-07-25T09:32:15.979Z,56.00
2022-07-25T09:34:47.744Z,56.80
2022-07-25T09:37:19.899Z,57.60
2022-07-25T09:39:51.916Z,57.60
2022-07-25T09:42:25.467Z,57.00
2022-07-25T09:45:04.567Z,57.00
2022-07-25T09:47:36.561Z,56.30
2022-07-25T09:50:07.213Z,55.40
2022-07-25T09:52:36.728Z,55.30
2022-07-25T09:55:09.455Z,55.20
2022-07-25T09:57:39.611Z,54.80
2022-07-25T10:00:10.463Z,54.60
2022-07-25T10:03:06.528Z,54.80
2022-07-25T10:05:56.825Z,54.10
2022-07-25T10:08:26.192Z,53.70
2022-07-25T10:10:54.582Z,54.50
2022-07-25T10:13:34.276Z,54.60
2022-07-25T10:16:03.225Z,55.40
2022-07-25T10:18:34.414Z,55.50
2022-07-25T10:21:25.615Z,54.80
2022-07-25T10:24:02.354Z,56.20
2022-07-25T10:26:32.224Z,55.70
2022-07-25T10:29:02.516Z,55.50
2022-07-25T10:31:39.693Z,55.20
2022-07-25T10:34:11.937Z,55.10
2022-07-25T10:36:47.236Z,55.20
2022-07-25T10:39:19.200Z,55.50
2022-07-25T10:41:53.898Z,56.80
2022-07-25T10:44:23.874Z,55.20
2022-07-25T10:46:52.283Z,56.60
2022-07-25T10:49:31.712Z,56.50
2022-07-25T10:52:04.062Z,56.80
2022-07-25T10:54:37.343Z,57.00
2022-07-25T10:57:07.699Z,57.00
2022-07-25T10:59:40.231Z,56.60
2022-07-25T11:02:16.345Z,56.30
2022-07-25T11:04:47.124Z,56.60
2022-07-25T11:07:18.500Z,57.60
2022-07-25T11:09:58.959Z,57.50
2022-07-25T11:12:28.301Z,58.60
2022-07-25T11:15:03.144Z,59.10
2022-07-25T11:17:32.198Z,59.00
2022-07-25T11:20:03.295Z,59.30
2022-07-25T11:22:34.369Z,59.50
2022-07-25T11:25:10.760Z,58.90
2022-07-25T11:27:39.769Z,58.80
2022-07-25T11:30:11.896Z,59.70
2022-07-25T11:32:43.098Z,59.30
2022-07-25T11:35:13.621Z,59.60
2022-07-25T11:37:48.571Z,59.50
2022-07-25T11:40:18.803Z,58.90
2022-07-25T11:42:50.409Z,59.10
2022-07-25T11:45:23.467Z,58.90
2022-07-25T11:48:05.390Z,58.40
2022-07-25T11:50:36.387Z,58.50
2022-07-25T11:53:08.599Z,59.20
2022-07-25T11:55:40.889Z,58.60
2022-07-25T11:58:12.727Z,57.60
2022-07-25T12:00:45.694Z,57.70
2022-07-25T12:03:20.304Z,57.10
2022-07-25T12:05:50.388Z,56.20
2022-07-25T12:08:22.902Z,56.50
2022-07-25T12:10:51.804Z,56.90
2022-07-25T12:13:25.486Z,57.20
2022-07-25T12:15:57.252Z,57.70
2022-07-25T12:18:25.876Z,58.00
2022-07-25T12:20:54.241Z,58.10
2022-07-25T12:23:22.675Z,58.10
2022-07-25T12:25:51.924Z,57.40
2022-07-25T12:28:20.341Z,56.20
2022-07-25T12:30:54.469Z,55.00
2022-07-25T12:33:26.424Z,55.50
2022-07-25T12:35:54.764Z,55.50
2022-07-25T12:38:23.313Z,56.20
2022-07-25T12:40:52.180Z,56.10
2022-07-25T12:43:20.496Z,54.40
2022-07-25T12:45:49.927Z,54.90
2022-07-25T12:48:18.719Z,55.20
2022-07-25T12:50:48.450Z,54.90
2022-07-25T12:53:17.269Z,55.10
2022-07-25T12:55:45.591Z,54.40
2022-07-25T12:58:15.116Z,55.00
2022-07-25T13:00:43.599Z,55.00
2022-07-25T13:03:12.199Z,54.80
2022-07-25T13:05:41.640Z,54.60
2022-07-25T13:08:11.327Z,52.60
2022-07-25T13:10:39.815Z,52.90
2022-07-25T13:13:08.457Z,52.70
2022-07-25T13:15:37.224Z,52.70
2022-07-25T13:18:06.136Z,52.50
2022-07-25T13:20:37.242Z,52.50
2022-07-25T13:23:06.454Z,52.80
2022-07-25T13:25:36.463Z,51.40
2022-07-25T13:28:08.552Z,51.30
2022-07-25T13:30:39.971Z,50.80
2022-07-25T13:33:10.546Z,50.70
2022-07-25T13:35:39.953Z,50.90
2022-07-25T13:38:11.288Z,51.00
2022-07-25T13:40:42.185Z,51.70
2022-07-25T13:43:11.959Z,51.70
2022-07-25T13:45:42.269Z,51.80
2022-07-25T13:51:00.143Z,52.60
2022-07-25T13:53:30.529Z,52.70
2022-07-25T13:56:01.747Z,52.50
2022-07-25T13:58:30.708Z,52.50
2022-07-25T14:00:59.965Z,51.90
2022-07-25T14:03:28.870Z,52.50
2022-07-25T14:05:57.193Z,52.40
2022-07-25T14:08:26.346Z,52.80
2022-07-25T14:10:54.676Z,52.50
2022-07-25T14:13:24.632Z,52.90
2022-07-25T14:15:53.330Z,53.20
2022-07-25T14:18:21.923Z,53.50
2022-07-25T14:20:50.672Z,54.10
2022-07-25T14:23:19.728Z,53.50
2022-07-25T14:25:48.343Z,54.00
2022-07-25T14:28:16.823Z,54.30
2022-07-25T14:30:46.733Z,54.00
2022-07-25T14:33:15.038Z,54.00
2022-07-25T14:35:43.568Z,53.90
2022-07-25T14:38:12.346Z,54.10
2022-07-25T14:40:43.306Z,54.70
2022-07-25T14:43:11.667Z,54.90
2022-07-25T14:45:42.200Z,55.10
2022-07-25T14:48:11.964Z,56.00
2022-07-25T14:50:40.807Z,55.80
2022-07-25T14:53:10.238Z,57.20
2022-07-25T14:55:39.465Z,59.30
2022-07-25T14:58:08.211Z,69.10
2022-07-25T15:00:40.990Z,74.10
2022-07-25T15:03:10.892Z,78.50
2022-07-25T15:05:39.673Z,81.50
2022-07-25T15:08:08.298Z,85.00
2022-07-25T15:10:36.604Z,88.70
2022-07-25T15:13:29.923Z,91.60
2022-07-25T15:15:53.809Z,93.00
2022-07-25T15:18:23.927Z,96.00
2022-07-25T15:20:52.289Z,99.30
2022-07-25T15:23:23.198Z,99.90
2022-07-25T15:26:07.574Z,99.90
2022-07-25T15:28:38.805Z,99.90
2022-07-25T15:31:07.501Z,99.90
2022-07-25T15:33:37.434Z,99.90
2022-07-25T15:36:06.408Z,99.90
2022-07-25T15:38:35.250Z,99.90
2022-07-25T15:41:03.622Z,99.90
2022-07-25T15:43:33.289Z,99.90
2022-07-25T15:46:01.591Z,99.90
2022-07-25T15:48:30.351Z,99.90
2022-07-25T15:51:00.770Z,99.90
2022-07-25T15:53:30.268Z,99.90
2022-07-25T15:55:59.249Z,99.90
2022-07-25T15:58:27.785Z,99.90
2022-07-25T16:00:56.295Z,99.90
2022-07-25T16:03:24.964Z,99.90
2022-07-25T16:05:55.722Z,99.90
2022-07-25T16:08:26.021Z,99.90
2022-07-25T16:10:54.656Z,99.90
2022-07-25T16:13:23.239Z,99.90
2022-07-25T16:15:51.696Z,99.90
2022-07-25T16:18:20.381Z,99.90
2022-07-25T16:20:49.360Z,99.90
2022-07-25T16:23:17.747Z,99.90
2022-07-25T16:25:47.531Z,99.90
2022-07-25T16:28:16.068Z,99.90
2022-07-25T16:30:44.364Z,99.90
2022-07-25T16:33:12.698Z,99.90
2022-07-25T16:35:41.027Z,99.90
2022-07-25T16:38:09.830Z,99.90
2022-07-25T16:40:38.422Z,99.90
2022-07-25T16:43:08.564Z,99.90
2022-07-25T16:45:37.917Z,99.90
2022-07-25T16:48:07.581Z,99.90
2022-07-25T16:50:36.484Z,99.90
2022-07-25T16:53:04.929Z,99.90
2022-07-25T16:55:33.249Z,99.90
2022-07-25T16:58:01.630Z,99.90
2022-07-25T17:00:32.865Z,99.90
2022-07-25T17:03:01.419Z,99.90
2022-07-25T17:05:30.903Z,99.90
2022-07-25T17:07:59.931Z,99.90
2022-07-25T17:10:29.889Z,99.90
2022-07-25T17:12:58.611Z,99.90
2022-07-25T17:15:27.082Z,99.50
2022-07-25T17:17:56.768Z,99.10
2022-07-25T17:20:25.814Z,98.90
2022-07-25T17:22:54.110Z,99.30
2022-07-25T17:25:22.649Z,98.50
2022-07-25T17:27:51.019Z,98.30
2022-07-25T17:30:19.347Z,98.00
2022-07-25T17:32:47.962Z,97.70
2022-07-25T17:35:17.648Z,97.70
2022-07-25T17:37:46.581Z,97.40
2022-07-25T17:40:15.064Z,97.40
2022-07-25T17:42:45.373Z,97.20
2022-07-25T17:45:15.082Z,97.30
2022-07-25T17:47:45.164Z,97.50
2022-07-25T17:50:14.538Z,97.60
2022-07-25T17:52:45.281Z,97.70
2022-07-25T17:55:13.946Z,97.70
2022-07-25T17:57:43.882Z,97.90
2022-07-25T18:00:14.634Z,98.10
2022-07-25T18:02:43.146Z,98.40
2022-07-25T18:05:12.058Z,98.70
2022-07-25T18:07:45.058Z,99.00
2022-07-25T18:10:15.631Z,99.50
2022-07-25T18:12:44.142Z,99.80
2022-07-25T18:15:14.796Z,99.90
2022-07-25T18:17:43.943Z,99.90
2022-07-25T18:20:14.383Z,99.90
2022-07-25T18:22:42.743Z,99.90
2022-07-25T18:25:15.042Z,99.90
2022-07-25T18:27:44.781Z,99.90
2022-07-25T18:30:15.107Z,99.90
2022-07-25T18:32:43.651Z,99.90
2022-07-25T18:35:12.534Z,99.90
2022-07-25T18:37:41.034Z,99.90
2022-07-25T18:40:11.689Z,99.90
2022-07-25T18:42:41.663Z,99.90
2022-07-25T18:45:12.040Z,99.90
2022-07-25T18:47:40.933Z,99.90
2022-07-25T18:50:10.968Z,99.90
2022-07-25T18:52:40.180Z,99.90
2022-07-25T18:55:10.712Z,99.90
2022-07-25T18:57:40.990Z,99.90
2022-07-25T19:00:11.758Z,99.90
2022-07-25T19:02:40.150Z,99.90
2022-07-25T19:05:10.230Z,99.90
2022-07-25T19:07:41.029Z,99.90
2022-07-25T19:10:11.091Z,99.90
2022-07-25T19:12:41.861Z,99.90
2022-07-25T19:15:11.227Z,99.90
2022-07-25T19:17:39.647Z,99.90
2022-07-25T19:20:10.783Z,99.90
2022-07-25T19:22:39.609Z,99.90
2022-07-25T19:25:10.884Z,99.90
2022-07-25T19:27:42.481Z,99.90
2022-07-25T19:30:16.995Z,99.90
2022-07-25T19:32:46.330Z,99.90
2022-07-25T19:35:15.306Z,99.90
2022-07-25T19:37:43.933Z,99.90
2022-07-25T19:40:13.417Z,99.90
2022-07-25T19:42:43.366Z,99.90
2022-07-25T19:45:12.306Z,99.90
2022-07-25T19:47:40.670Z,99.90
2022-07-25T19:50:10.160Z,99.90
2022-07-25T19:52:39.090Z,99.90
2022-07-25T19:55:08.384Z,99.90
2022-07-25T19:57:37.042Z,99.90
2022-07-25T20:00:08.520Z,99.90
2022-07-25T20:02:43.335Z,99.90
2022-07-25T20:05:12.253Z,99.90
2022-07-25T20:07:40.581Z,99.90
2022-07-25T20:10:10.640Z,99.90
2022-07-25T20:12:39.554Z,99.90
2022-07-25T20:15:10.767Z,99.90
2022-07-25T20:17:39.802Z,99.90
2022-07-25T20:20:10.262Z,99.90
2022-07-25T20:22:39.249Z,99.90
2022-07-25T20:25:11.187Z,99.90
2022-07-25T20:27:39.831Z,99.90
2022-07-25T20:30:13.310Z,99.90
2022-07-25T20:32:41.933Z,99.90
2022-07-25T20:35:10.799Z,99.90
2022-07-25T20:37:39.838Z,99.90
2022-07-25T20:40:10.198Z,99.90
2022-07-25T20:42:39.921Z,99.90
2022-07-25T20:45:11.240Z,99.90
2022-07-25T20:47:40.100Z,99.90
2022-07-25T20:50:10.408Z,99.90
2022-07-25T20:52:39.794Z,99.90
2022-07-25T20:55:09.424Z,99.90
2022-07-25T20:57:38.340Z,99.90
2022-07-25T21:00:08.457Z,99.90
2022-07-25T21:02:38.868Z,99.90
2022-07-25T21:05:08.465Z,99.90
2022-07-25T21:07:36.735Z,99.90
2022-07-25T21:10:05.826Z,99.90
2022-07-25T21:12:34.734Z,99.90
2022-07-25T21:15:03.379Z,99.90
2022-07-25T21:17:31.668Z,99.90
2022-07-25T21:20:02.124Z,99.90
2022-07-25T21:22:31.086Z,99.90
2022-07-25T21:24:59.865Z,99.90
2022-07-25T21:27:29.115Z,99.90
2022-07-25T21:29:58.164Z,99.90
2022-07-25T21:32:26.778Z,99.90
2022-07-25T21:34:55.481Z,99.90
2022-07-25T21:37:25.163Z,99.90
2022-07-25T21:39:54.034Z,99.90
2022-07-25T21:42:22.335Z,99.90
2022-07-25T21:44:50.881Z,99.90
2022-07-25T21:47:19.426Z,99.90
2022-07-25T21:50:05.316Z,99.90
2022-07-25T21:52:35.500Z,99.90
2022-07-25T21:55:05.909Z,99.90
2022-07-25T21:57:34.664Z,99.90
2022-07-25T22:00:03.312Z,99.90
2022-07-25T22:02:44.116Z,99.90
2022-07-25T22:05:13.343Z,99.90
2022-07-25T22:07:45.067Z,99.90
2022-07-25T22:10:16.811Z,99.90
2022-07-25T22:12:45.107Z,99.90
2022-07-25T22:15:14.266Z,99.90
2022-07-25T22:17:48.540Z,99.90
2022-07-25T22:20:18.669Z,99.90
2022-07-25T22:22:49.606Z,99.90
2022-07-25T22:25:18.752Z,99.90
2022-07-25T22:27:47.349Z,99.90
2022-07-25T22:30:19.422Z,99.90
2022-07-25T22:32:48.669Z,99.90
2022-07-25T22:35:17.483Z,99.90
2022-07-25T22:37:48.164Z,99.90
2022-07-25T22:40:16.772Z,99.90
2022-07-25T22:42:45.119Z,99.90
2022-07-25T22:45:13.958Z,99.90
2022-07-25T22:47:42.783Z,99.90
2022-07-25T22:50:11.431Z,99.90
2022-07-25T22:52:39.718Z,99.90
2022-07-25T22:55:10.706Z,99.90
2022-07-25T22:57:39.838Z,99.90
2022-07-25T23:00:11.996Z,99.90
2022-07-25T23:02:41.113Z,99.90
2022-07-25T23:05:10.812Z,99.90
2022-07-25T23:07:39.704Z,99.90
2022-07-25T23:10:10.999Z,99.90
2022-07-25T23:12:40.480Z,99.90
2022-07-25T23:15:10.658Z,99.90
2022-07-25T23:17:39.559Z,99.90
2022-07-25T23:20:09.595Z,99.90
2022-07-25T23:22:37.881Z,99.90
2022-07-25T23:25:08.303Z,99.90
2022-07-25T23:27:38.427Z,99.90
2022-07-25T23:30:08.962Z,99.90
2022-07-25T23:32:37.645Z,99.90
2022-07-25T23:35:07.016Z,99.90
2022-07-25T23:37:35.644Z,99.90
2022-07-25T23:40:06.101Z,99.90
2022-07-25T23:42:34.775Z,99.90
2022-07-25T23:45:06.634Z,99.90
2022-07-25T23:47:39.220Z,99.90
2022-07-25T23:50:10.678Z,99.90
2022-07-25T23:52:39.700Z,99.90
2022-07-25T23:55:09.913Z,99.90
2022-07-25T23:57:38.676Z,99.90
